Time;durP1;ratioP1;P1;durP2;ratioP2;P2;SDS_P1;SDS_P2;PMS_P1;PMS_P2;Temp;Humidity;BMP_temperature;BMP_pressure;BME280_temperature;BME280_humidity;BME280_pressure;Samples;Min_cycle;Max_cycle;Signal;HPM_P1;HPM_P2
2022/10/20 00:00:30;;;;;;;16.97;7.80;;;9.90;99.90;;;;;;5100002;28;20508;-73
2022/10/20 00:02:57;;;;;;;9.73;7.20;;;9.90;99.90;;;;;;5107530;28;20483;-73
2022/10/20 00:05:23;;;;;;;20.27;8.07;;;9.80;99.90;;;;;;5111587;28;20457;-73
2022/10/20 00:07:51;;;;;;;10.80;7.23;;;9.70;99.90;;;;;;5094208;28;20512;-73
2022/10/20 00:10:18;;;;;;;10.10;6.80;;;9.70;99.90;;;;;;5093943;28;20454;-73
2022/10/20 00:12:45;;;;;;;15.03;7.40;;;9.60;99.90;;;;;;5092896;28;20502;-73
2022/10/20 00:15:11;;;;;;;10.70;7.07;;;9.60;99.90;;;;;;5097086;28;20513;-74
2022/10/20 00:17:38;;;;;;;11.93;6.80;;;9.60;99.90;;;;;;5110294;28;20900;-74
2022/10/20 00:20:06;;;;;;;15.13;8.13;;;9.50;99.90;;;;;;5107994;28;20451;-73
2022/10/20 00:22:33;;;;;;;13.43;7.47;;;9.50;99.90;;;;;;5105098;28;20470;-73
2022/10/20 00:25:01;;;;;;;12.77;7.40;;;9.50;99.90;;;;;;5109515;28;20856;-74
2022/10/20 00:27:27;;;;;;;10.00;8.30;;;9.40;99.90;;;;;;5100886;28;20917;-73
2022/10/20 00:29:54;;;;;;;12.03;7.87;;;9.40;99.90;;;;;;5096771;28;20561;-73
2022/10/20 00:32:21;;;;;;;15.80;8.60;;;9.40;99.90;;;;;;5101743;28;20494;-73
2022/10/20 00:34:47;;;;;;;13.90;7.10;;;9.30;99.90;;;;;;5107489;28;20465;-74
2022/10/20 00:37:14;;;;;;;14.10;8.00;;;9.30;99.90;;;;;;5102677;28;20546;-74
2022/10/20 00:39:41;;;;;;;11.60;6.67;;;9.30;99.90;;;;;;5103847;28;20453;-73
2022/10/20 00:42:14;;;;;;;12.87;6.70;;;9.30;99.90;;;;;;5092340;28;20474;-73
2022/10/20 00:44:50;;;;;;;9.80;7.07;;;9.30;99.90;;;;;;5092433;28;20466;-73
2022/10/20 00:47:21;;;;;;;14.23;8.27;;;9.30;99.90;;;;;;5106710;28;20439;-74
2022/10/20 00:49:49;;;;;;;11.30;7.30;;;9.30;99.90;;;;;;5098597;28;20497;-74
2022/10/20 00:52:20;;;;;;;13.83;6.97;;;9.30;99.90;;;;;;5096287;28;20490;-74
2022/10/20 00:54:47;;;;;;;14.13;7.83;;;9.30;99.90;;;;;;5101704;28;20458;-73
2022/10/20 00:57:16;;;;;;;12.80;6.60;;;9.30;99.90;;;;;;5098412;28;20501;-73
2022/10/20 00:59:43;;;;;;;11.70;7.30;;;9.20;99.90;;;;;;5096352;28;20877;-73
2022/10/20 01:02:11;;;;;;;14.70;7.33;;;9.20;99.90;;;;;;5097037;28;20549;-73
2022/10/20 01:04:38;;;;;;;8.83;6.67;;;9.20;99.90;;;;;;5097971;28;20480;-74
2022/10/20 01:07:06;;;;;;;9.03;7.97;;;9.10;99.90;;;;;;5106848;28;20470;-73
2022/10/20 01:09:33;;;;;;;9.73;6.93;;;9.10;99.90;;;;;;5102230;28;20513;-73
2022/10/20 01:12:11;;;;;;;10.90;7.40;;;9.10;99.90;;;;;;5096825;28;20470;-74
2022/10/20 01:14:46;;;;;;;15.23;7.80;;;9.10;99.90;;;;;;5103515;28;20458;-74
2022/10/20 01:17:22;;;;;;;11.73;7.47;;;9.10;99.90;;;;;;5104554;28;20473;-73
2022/10/20 01:20:25;;;;;;;15.60;7.47;;;9.00;99.90;;;;;;5105308;28;20824;-73
2022/10/20 01:23:30;;;;;;;8.20;7.10;;;9.00;99.90;;;;;;5084779;28;20465;-74
2022/10/20 01:26:27;;;;;;;13.77;8.60;;;8.90;99.90;;;;;;5082370;28;20451;-74
2022/10/20 01:28:59;;;;;;;11.40;8.37;;;8.90;99.90;;;;;;5099882;28;20579;-73
2022/10/20 01:31:30;;;;;;;15.13;8.00;;;8.90;99.90;;;;;;5098880;28;20542;-73
2022/10/20 01:34:06;;;;;;;15.60;8.67;;;8.80;99.90;;;;;;5099639;28;20462;-73
2022/10/20 01:36:37;;;;;;;10.90;8.73;;;8.80;99.90;;;;;;5095085;28;20945;-74
2022/10/20 01:39:08;;;;;;;14.30;7.70;;;8.80;99.90;;;;;;5096693;28;20523;-74
2022/10/20 01:41:42;;;;;;;9.97;8.77;;;8.80;99.90;;;;;;5099338;28;20471;-73
2022/10/20 01:44:13;;;;;;;12.40;8.13;;;8.70;99.90;;;;;;5097681;28;20848;-73
2022/10/20 01:46:42;;;;;;;12.10;8.10;;;8.70;99.90;;;;;;5098410;28;20450;-74
2022/10/20 01:49:09;;;;;;;11.13;8.30;;;8.70;99.90;;;;;;5101363;28;20892;-73
2022/10/20 01:51:36;;;;;;;15.77;8.23;;;8.60;99.90;;;;;;5105547;28;20492;-73
2022/10/20 01:54:03;;;;;;;13.50;8.30;;;8.60;99.90;;;;;;5110631;28;20452;-73
2022/10/20 01:56:36;;;;;;;13.37;8.00;;;8.50;99.90;;;;;;5108888;28;20456;-74
2022/10/20 01:59:20;;;;;;;13.50;7.73;;;8.50;99.90;;;;;;5103963;28;20461;-73
2022/10/20 02:02:02;;;;;;;10.57;7.80;;;8.50;99.90;;;;;;5095771;28;20476;-74
2022/10/20 02:04:40;;;;;;;8.73;7.37;;;8.40;99.90;;;;;;5093344;28;20456;-73
2022/10/20 02:07:14;;;;;;;9.97;7.40;;;8.40;99.90;;;;;;5095846;28;20447;-73
2022/10/20 02:09:47;;;;;;;9.50;7.23;;;8.40;99.90;;;;;;5095098;28;20446;-73
2022/10/20 02:12:19;;;;;;;8.00;7.20;;;8.40;99.90;;;;;;5105093;28;20485;-74
2022/10/20 02:14:48;;;;;;;19.60;7.60;;;8.40;99.90;;;;;;5109232;28;20956;-73
2022/10/20 02:17:18;;;;;;;15.63;7.47;;;8.30;99.90;;;;;;5095233;28;20489;-73
2022/10/20 02:19:47;;;;;;;13.20;8.77;;;8.30;99.90;;;;;;5094795;28;20879;-73
2022/10/20 02:22:16;;;;;;;14.43;7.63;;;8.30;99.90;;;;;;5095924;28;20476;-73
2022/10/20 02:24:44;;;;;;;14.60;7.63;;;8.20;99.90;;;;;;5101443;28;20451;-73
2022/10/20 02:27:15;;;;;;;16.53;8.63;;;8.20;99.90;;;;;;5095162;28;20446;-73
2022/10/20 02:29:46;;;;;;;10.53;7.83;;;8.20;99.90;;;;;;5102593;28;20456;-73
2022/10/20 02:32:16;;;;;;;13.40;7.77;;;8.10;99.90;;;;;;5106848;28;20474;-73
2022/10/20 02:34:43;;;;;;;12.00;8.40;;;8.10;99.90;;;;;;5098573;27;20453;-73
2022/10/20 02:37:10;;;;;;;9.30;7.87;;;8.10;99.90;;;;;;5095281;28;20480;-73
2022/10/20 02:39:37;;;;;;;14.63;7.23;;;8.10;99.90;;;;;;5095771;28;20458;-73
2022/10/20 02:42:04;;;;;;;13.03;8.03;;;8.10;99.90;;;;;;5095508;28;20471;-73
2022/10/20 02:44:30;;;;;;;13.70;8.00;;;8.00;99.90;;;;;;5093674;28;20458;-73
2022/10/20 02:46:57;;;;;;;14.73;10.10;;;8.00;99.90;;;;;;5094893;28;20508;-73
2022/10/20 02:49:26;;;;;;;8.93;7.90;;;7.90;99.90;;;;;;5099452;28;20464;-73
2022/10/20 02:51:53;;;;;;;12.23;8.57;;;7.90;99.90;;;;;;5090322;28;20513;-73
2022/10/20 02:54:19;;;;;;;12.70;7.73;;;7.90;99.90;;;;;;5104178;28;20456;-73
2022/10/20 02:56:46;;;;;;;12.20;8.97;;;7.90;99.90;;;;;;5108491;28;20449;-73
2022/10/20 02:59:15;;;;;;;18.00;8.60;;;7.90;99.90;;;;;;5100575;28;20454;-73
2022/10/20 03:01:42;;;;;;;11.90;8.70;;;7.90;99.90;;;;;;5103318;28;20472;-73
2022/10/20 03:04:09;;;;;;;9.70;8.10;;;7.80;99.90;;;;;;5100461;28;20452;-72
2022/10/20 03:06:37;;;;;;;12.30;8.23;;;7.80;99.90;;;;;;5093796;28;20459;-73
2022/10/20 03:09:04;;;;;;;20.53;8.20;;;7.80;99.90;;;;;;5094893;28;20491;-73
2022/10/20 03:11:31;;;;;;;13.73;9.03;;;7.70;99.90;;;;;;5100099;28;20903;-73
2022/10/20 03:13:57;;;;;;;13.80;8.37;;;7.70;99.90;;;;;;5100525;28;20454;-73
2022/10/20 03:16:24;;;;;;;13.23;8.77;;;7.70;99.90;;;;;;5099744;28;20885;-73
2022/10/20 03:18:51;;;;;;;11.43;9.23;;;7.70;99.90;;;;;;5104724;28;20485;-73
2022/10/20 03:21:17;;;;;;;13.93;8.67;;;7.60;99.90;;;;;;5099635;28;20464;-73
2022/10/20 03:23:46;;;;;;;12.90;9.33;;;7.60;99.90;;;;;;5098808;28;20446;-73
2022/10/20 03:26:13;;;;;;;21.67;9.50;;;7.60;99.90;;;;;;5096207;28;20886;-73
2022/10/20 03:28:40;;;;;;;17.57;9.47;;;7.60;99.90;;;;;;5094714;28;20461;-73
2022/10/20 03:31:07;;;;;;;12.60;9.07;;;7.60;99.90;;;;;;5103429;28;20516;-73
2022/10/20 03:33:34;;;;;;;11.53;9.33;;;7.60;99.90;;;;;;5095736;28;20453;-73
2022/10/20 03:36:01;;;;;;;14.73;9.17;;;7.60;99.90;;;;;;5094074;28;20483;-73
2022/10/20 03:38:27;;;;;;;18.10;9.57;;;7.60;99.90;;;;;;5102657;28;21062;-73
2022/10/20 03:40:55;;;;;;;13.37;9.40;;;7.60;99.90;;;;;;5092833;28;20473;-73
2022/10/20 03:43:22;;;;;;;12.43;8.53;;;7.60;99.90;;;;;;5107074;28;20455;-73
2022/10/20 03:45:49;;;;;;;11.87;8.90;;;7.60;99.90;;;;;;5106708;28;20516;-73
2022/10/20 03:48:16;;;;;;;19.83;8.80;;;7.50;99.90;;;;;;5099958;28;20537;-73
2022/10/20 03:50:43;;;;;;;15.47;9.87;;;7.60;99.90;;;;;;5102761;28;20459;-74
2022/10/20 03:53:12;;;;;;;9.63;8.70;;;7.60;99.90;;;;;;5105627;28;20472;-73
2022/10/20 03:55:39;;;;;;;14.73;8.70;;;7.60;99.90;;;;;;5108158;28;20465;-73
2022/10/20 03:58:07;;;;;;;13.00;9.33;;;7.50;99.90;;;;;;5101418;28;20486;-73
2022/10/20 04:00:34;;;;;;;12.90;9.10;;;7.50;99.90;;;;;;5098903;28;20962;-73
2022/10/20 04:03:00;;;;;;;13.03;8.90;;;7.50;99.90;;;;;;5103626;28;20477;-73
2022/10/20 04:05:27;;;;;;;15.73;8.70;;;7.50;99.90;;;;;;5103478;28;20455;-73
2022/10/20 04:07:54;;;;;;;16.93;10.00;;;7.50;99.90;;;;;;5092754;28;20446;-73
2022/10/20 04:10:20;;;;;;;16.70;9.63;;;7.50;99.90;;;;;;5105823;28;20450;-73
2022/10/20 04:12:47;;;;;;;22.23;10.03;;;7.50;99.90;;;;;;5111332;27;20522;-73
2022/10/20 04:15:17;;;;;;;13.73;9.53;;;7.40;99.90;;;;;;5108820;28;20514;-73
2022/10/20 04:17:44;;;;;;;21.37;10.23;;;7.40;99.90;;;;;;5107804;28;20481;-73
2022/10/20 04:20:11;;;;;;;22.50;10.03;;;7.40;99.90;;;;;;5098857;28;20459;-73
2022/10/20 04:22:37;;;;;;;21.23;11.30;;;7.40;99.90;;;;;;5096360;28;20480;-73
2022/10/20 04:25:05;;;;;;;25.97;12.97;;;7.30;99.90;;;;;;5097491;28;20571;-71
2022/10/20 04:27:32;;;;;;;27.67;11.30;;;7.30;99.90;;;;;;5101486;28;20817;-73
2022/10/20 04:29:58;;;;;;;18.43;10.90;;;7.30;99.90;;;;;;5102714;27;20476;-73
2022/10/20 04:32:26;;;;;;;21.10;12.40;;;7.30;99.90;;;;;;5105885;28;20484;-73
2022/10/20 04:34:53;;;;;;;17.27;9.63;;;7.30;99.90;;;;;;5103764;28;20827;-73
2022/10/20 04:37:20;;;;;;;18.10;10.47;;;7.30;99.90;;;;;;5101576;28;20475;-73
2022/10/20 04:39:46;;;;;;;17.93;10.20;;;7.30;99.90;;;;;;5104117;28;20522;-72
2022/10/20 04:42:13;;;;;;;18.20;9.60;;;7.30;99.90;;;;;;5108766;28;20468;-72
2022/10/20 04:44:40;;;;;;;16.20;10.30;;;7.30;99.90;;;;;;5098698;28;20453;-72
2022/10/20 04:47:06;;;;;;;15.10;10.23;;;7.30;99.90;;;;;;5095383;28;20451;-73
2022/10/20 04:49:34;;;;;;;19.17;10.50;;;7.30;99.90;;;;;;5098877;28;20454;-73
2022/10/20 04:52:01;;;;;;;15.20;9.63;;;7.30;99.90;;;;;;5106985;28;20474;-72
2022/10/20 04:54:29;;;;;;;14.53;9.80;;;7.40;99.90;;;;;;5101328;28;20453;-72
2022/10/20 04:56:56;;;;;;;12.73;9.80;;;7.40;99.90;;;;;;5104265;28;20479;-73
2022/10/20 04:59:23;;;;;;;21.77;9.80;;;7.40;99.90;;;;;;5103959;28;20512;-74
2022/10/20 05:01:49;;;;;;;16.07;10.80;;;7.40;99.90;;;;;;5103742;28;20479;-74
2022/10/20 05:04:20;;;;;;;14.70;10.33;;;7.40;99.90;;;;;;5100677;28;20464;-73
2022/10/20 05:06:49;;;;;;;20.63;10.77;;;7.30;99.90;;;;;;5096464;28;20495;-74
2022/10/20 05:09:16;;;;;;;13.03;10.30;;;7.30;99.90;;;;;;5108308;28;20447;-74
2022/10/20 05:11:43;;;;;;;11.47;9.63;;;7.40;99.90;;;;;;5106203;28;20468;-73
2022/10/20 05:14:10;;;;;;;20.70;10.80;;;7.40;99.90;;;;;;5103106;28;20467;-72
2022/10/20 05:16:36;;;;;;;14.83;10.27;;;7.30;99.90;;;;;;5098732;28;20455;-73
2022/10/20 05:19:03;;;;;;;12.30;9.77;;;7.40;99.90;;;;;;5104373;28;20480;-72
2022/10/20 05:21:31;;;;;;;13.13;10.47;;;7.40;99.90;;;;;;5104251;28;20475;-73
2022/10/20 05:24:01;;;;;;;18.00;11.37;;;7.40;99.90;;;;;;5099545;28;20493;-72
2022/10/20 05:26:33;;;;;;;15.53;9.53;;;7.40;99.90;;;;;;5101829;28;20457;-72
2022/10/20 05:29:00;;;;;;;18.50;9.57;;;7.40;99.90;;;;;;5098595;28;20453;-72
2022/10/20 05:31:27;;;;;;;12.73;9.33;;;7.40;99.90;;;;;;5107668;28;21004;-73
2022/10/20 05:33:56;;;;;;;12.10;9.23;;;7.40;99.90;;;;;;5103981;28;20455;-71
2022/10/20 05:36:24;;;;;;;17.00;10.40;;;7.40;99.90;;;;;;5101670;28;20528;-72
2022/10/20 05:38:52;;;;;;;16.00;10.07;;;7.30;99.90;;;;;;5099568;28;20490;-72
2022/10/20 05:41:22;;;;;;;15.73;10.60;;;7.30;99.90;;;;;;5100545;28;21098;-75
2022/10/20 05:43:49;;;;;;;20.33;10.70;;;7.30;99.90;;;;;;5109839;28;20456;-73
2022/10/20 05:46:17;;;;;;;17.27;12.27;;;7.40;99.90;;;;;;5102008;28;20445;-73
2022/10/20 05:48:44;;;;;;;20.67;11.43;;;7.40;99.90;;;;;;5100203;28;20440;-76
2022/10/20 05:51:12;;;;;;;21.27;11.57;;;7.40;99.90;;;;;;5103629;28;20453;-75
2022/10/20 05:53:39;;;;;;;16.53;11.50;;;7.50;99.90;;;;;;5108225;28;20448;-75
2022/10/20 05:56:07;;;;;;;23.00;10.53;;;7.50;99.90;;;;;;5108394;28;20884;-75
2022/10/20 05:58:36;;;;;;;14.63;10.43;;;7.50;99.90;;;;;;5108037;28;20475;-75
2022/10/20 06:01:07;;;;;;;14.63;10.53;;;7.50;99.90;;;;;;5106749;28;20485;-75
2022/10/20 06:03:34;;;;;;;11.53;9.77;;;7.50;99.90;;;;;;5107481;28;20543;-75
2022/10/20 06:06:01;;;;;;;14.80;9.90;;;7.50;99.90;;;;;;5108818;28;20861;-75
2022/10/20 06:08:31;;;;;;;16.00;10.10;;;7.50;99.90;;;;;;5108788;28;20487;-75
2022/10/20 06:11:01;;;;;;;18.63;10.30;;;7.50;99.90;;;;;;5107186;28;20533;-75
2022/10/20 06:13:28;;;;;;;9.87;8.87;;;7.60;99.90;;;;;;5108016;28;20460;-75
2022/10/20 06:16:01;;;;;;;13.70;10.90;;;7.60;99.90;;;;;;5108065;28;20542;-75
2022/10/20 06:18:28;;;;;;;20.73;11.57;;;7.60;99.90;;;;;;5108505;28;20476;-77
2022/10/20 06:20:59;;;;;;;19.33;10.70;;;7.70;99.90;;;;;;5108026;28;20454;-75
2022/10/20 06:23:26;;;;;;;19.70;11.77;;;7.70;99.90;;;;;;5108410;28;20442;-76
2022/10/20 06:25:53;;;;;;;12.57;9.93;;;7.70;99.90;;;;;;5108113;28;20457;-76
2022/10/20 06:28:20;;;;;;;17.47;11.90;;;7.80;99.90;;;;;;5107700;28;20453;-76
2022/10/20 06:30:46;;;;;;;18.87;13.10;;;7.80;99.90;;;;;;5107288;28;20463;-76
2022/10/20 06:33:15;;;;;;;19.90;12.40;;;7.90;99.90;;;;;;5106761;28;21061;-76
2022/10/20 06:35:42;;;;;;;23.10;12.80;;;8.00;99.90;;;;;;5106512;28;20449;-76
2022/10/20 06:38:09;;;;;;;18.23;11.10;;;8.20;99.90;;;;;;5105277;27;20449;-76
2022/10/20 06:40:35;;;;;;;16.23;10.50;;;8.50;99.90;;;;;;5105679;28;20464;-75
2022/10/20 06:43:02;;;;;;;16.43;10.77;;;8.70;99.90;;;;;;5106707;28;20858;-75
2022/10/20 06:45:29;;;;;;;14.60;9.90;;;8.80;99.90;;;;;;5099981;28;20462;-74
2022/10/20 06:47:55;;;;;;;18.17;11.00;;;8.80;99.90;;;;;;5102893;28;20453;-76
2022/10/20 06:50:23;;;;;;;20.10;11.87;;;8.80;99.90;;;;;;5106245;28;20938;-76
2022/10/20 06:52:50;;;;;;;13.10;10.63;;;8.70;99.90;;;;;;5110838;28;20487;-76
2022/10/20 06:55:17;;;;;;;14.07;10.90;;;8.70;99.90;;;;;;5112216;28;20446;-76
2022/10/20 06:57:43;;;;;;;23.83;11.87;;;8.80;99.90;;;;;;5111903;28;20452;-76
2022/10/20 07:00:11;;;;;;;13.73;10.90;;;8.80;99.90;;;;;;5110967;28;21017;-76
2022/10/20 07:02:38;;;;;;;17.07;10.90;;;8.80;99.90;;;;;;5111690;28;20475;-75
2022/10/20 07:05:06;;;;;;;18.57;12.23;;;8.80;99.90;;;;;;5111816;28;20484;-76
2022/10/20 07:07:34;;;;;;;18.80;11.93;;;8.70;99.90;;;;;;5112291;28;20460;-75
2022/10/20 07:10:00;;;;;;;15.20;11.40;;;8.70;99.90;;;;;;5101560;28;20794;-76
2022/10/20 07:12:27;;;;;;;20.80;12.17;;;8.70;99.90;;;;;;5096014;28;21033;-73
2022/10/20 07:14:54;;;;;;;17.83;12.77;;;8.80;99.90;;;;;;5092840;28;20550;-73
2022/10/20 07:17:20;;;;;;;20.33;11.70;;;8.80;99.90;;;;;;5091595;28;20468;-73
2022/10/20 07:19:47;;;;;;;21.13;12.17;;;8.80;99.90;;;;;;5092276;28;20490;-73
2022/10/20 07:22:14;;;;;;;25.80;12.63;;;8.80;99.90;;;;;;5111562;28;20472;-72
2022/10/20 07:24:42;;;;;;;19.27;12.03;;;8.90;99.90;;;;;;5107612;28;20462;-72
2022/10/20 07:27:08;;;;;;;22.07;12.57;;;8.90;99.90;;;;;;5110732;28;20463;-73
2022/10/20 07:29:35;;;;;;;22.43;13.47;;;9.00;99.90;;;;;;5108640;28;20454;-73
2022/10/20 07:32:02;;;;;;;22.00;13.90;;;9.00;99.90;;;;;;5100139;28;20484;-73
2022/10/20 07:34:28;;;;;;;22.57;13.40;;;9.10;99.90;;;;;;5111389;28;20457;-72
2022/10/20 07:36:56;;;;;;;19.00;12.83;;;9.10;99.90;;;;;;5111937;28;20457;-74
2022/10/20 07:39:23;;;;;;;19.63;11.77;;;9.20;99.90;;;;;;5110670;28;20489;-74
2022/10/20 07:41:51;;;;;;;17.90;12.27;;;9.20;99.90;;;;;;5095497;28;20527;-73
2022/10/20 07:44:18;;;;;;;20.80;13.60;;;9.10;99.90;;;;;;5110812;28;20859;-74
2022/10/20 07:46:45;;;;;;;23.33;13.40;;;9.10;99.90;;;;;;5115456;28;20945;-74
2022/10/20 07:49:12;;;;;;;19.23;12.00;;;9.20;99.90;;;;;;5115241;28;20460;-74
2022/10/20 07:51:39;;;;;;;17.83;13.37;;;9.30;99.90;;;;;;5108174;28;20486;-74
2022/10/20 07:54:10;;;;;;;21.23;14.43;;;9.30;99.90;;;;;;5095018;28;20943;-73
2022/10/20 07:56:39;;;;;;;19.47;12.97;;;9.40;99.90;;;;;;5095301;28;20514;-73
2022/10/20 07:59:08;;;;;;;27.77;12.63;;;9.50;99.90;;;;;;5109987;28;20504;-73
2022/10/20 08:01:34;;;;;;;19.50;11.93;;;9.70;99.90;;;;;;5114120;28;20472;-74
2022/10/20 08:04:01;;;;;;;17.50;12.60;;;9.80;99.90;;;;;;5096240;28;20458;-73
2022/10/20 08:06:28;;;;;;;19.90;12.53;;;10.00;99.90;;;;;;5094221;28;20454;-74
2022/10/20 08:08:55;;;;;;;17.90;12.33;;;10.10;99.90;;;;;;5095882;28;20451;-74
2022/10/20 08:11:22;;;;;;;17.57;12.40;;;10.20;99.90;;;;;;5093680;28;20466;-74
2022/10/20 08:13:48;;;;;;;21.57;12.40;;;10.30;99.90;;;;;;5093973;28;20789;-74
2022/10/20 08:16:17;;;;;;;15.77;12.53;;;10.40;99.90;;;;;;5094741;28;20466;-74
2022/10/20 08:18:44;;;;;;;17.33;13.00;;;10.30;99.90;;;;;;5105218;28;20456;-73
2022/10/20 08:21:13;;;;;;;17.73;13.13;;;10.30;99.90;;;;;;5102463;28;20839;-73
2022/10/20 08:23:42;;;;;;;18.47;12.70;;;10.30;99.90;;;;;;5095009;28;20512;-73
2022/10/20 08:26:09;;;;;;;20.10;13.40;;;10.30;99.90;;;;;;5093708;28;20450;-73
2022/10/20 08:28:36;;;;;;;21.97;13.67;;;10.30;99.90;;;;;;5104807;28;20511;-74
2022/10/20 08:31:03;;;;;;;28.63;13.00;;;10.30;99.90;;;;;;5113474;28;20979;-74
2022/10/20 08:33:31;;;;;;;19.17;13.27;;;10.20;99.90;;;;;;5093773;28;20827;-73
2022/10/20 08:36:02;;;;;;;18.37;13.20;;;10.20;99.90;;;;;;5093494;28;20450;-73
2022/10/20 08:38:29;;;;;;;17.47;13.40;;;10.30;99.90;;;;;;5093676;28;20545;-73
2022/10/20 08:40:56;;;;;;;22.17;13.60;;;10.30;99.90;;;;;;5093068;28;21043;-73
2022/10/20 08:43:23;;;;;;;22.00;13.57;;;10.30;99.90;;;;;;5093307;28;20467;-73
2022/10/20 08:45:50;;;;;;;21.07;14.27;;;10.30;99.90;;;;;;5094656;28;20455;-73
2022/10/20 08:48:20;;;;;;;18.80;13.10;;;10.30;99.90;;;;;;5101663;28;20471;-73
2022/10/20 08:50:51;;;;;;;22.13;13.10;;;10.20;99.90;;;;;;5113475;28;20445;-73
2022/10/20 08:53:19;;;;;;;24.20;13.37;;;10.20;99.90;;;;;;5113673;28;20548;-74
2022/10/20 08:55:47;;;;;;;29.73;14.17;;;10.20;99.90;;;;;;5107093;28;20554;-73
2022/10/20 08:58:15;;;;;;;22.00;14.00;;;10.20;99.90;;;;;;5099295;28;20450;-74
2022/10/20 09:00:43;;;;;;;22.73;14.90;;;10.20;99.90;;;;;;5101339;28;20494;-74
2022/10/20 09:03:15;;;;;;;21.90;14.53;;;10.20;99.90;;;;;;5094051;28;20477;-74
2022/10/20 09:05:45;;;;;;;22.50;14.90;;;10.10;99.90;;;;;;5093862;28;20945;-76
2022/10/20 09:08:13;;;;;;;21.67;14.33;;;10.20;99.90;;;;;;5102071;28;20945;-76
2022/10/20 09:10:45;;;;;;;25.03;15.40;;;10.20;99.90;;;;;;5103228;27;20449;-76
2022/10/20 09:13:19;;;;;;;21.47;13.97;;;10.20;99.90;;;;;;5093599;28;20497;-76
2022/10/20 09:15:47;;;;;;;26.97;14.40;;;10.20;99.90;;;;;;5093759;28;20538;-76
2022/10/20 09:18:15;;;;;;;20.60;14.33;;;10.20;99.90;;;;;;5093490;28;20454;-76
2022/10/20 09:20:46;;;;;;;23.43;14.37;;;10.30;99.90;;;;;;5095877;28;20486;-76
2022/10/20 09:23:16;;;;;;;28.27;15.43;;;10.20;99.90;;;;;;5092891;28;20470;-75
2022/10/20 09:25:43;;;;;;;24.20;15.80;;;10.20;99.90;;;;;;5094655;28;20447;-75
2022/10/20 09:28:21;;;;;;;28.03;16.27;;;10.20;99.90;;;;;;5100179;28;20458;-76
2022/10/20 09:30:48;;;;;;;27.37;16.63;;;10.20;99.90;;;;;;5112726;28;20560;-75
2022/10/20 09:33:28;;;;;;;34.33;17.77;;;10.20;99.90;;;;;;5113331;28;20465;-76
2022/10/20 09:36:04;;;;;;;31.43;17.03;;;10.30;99.90;;;;;;5113774;28;20500;-76
2022/10/20 09:38:34;;;;;;;26.50;17.70;;;10.30;99.90;;;;;;5096784;28;20454;-76
2022/10/20 09:41:14;;;;;;;27.27;17.50;;;10.30;99.90;;;;;;5103680;28;20489;-74
2022/10/20 09:43:49;;;;;;;30.93;17.87;;;10.40;99.90;;;;;;5098201;28;20450;-73
2022/10/20 09:46:20;;;;;;;33.27;18.30;;;10.40;99.90;;;;;;5113593;28;20445;-73
2022/10/20 09:48:49;;;;;;;30.90;19.37;;;10.40;99.90;;;;;;5113305;28;20449;-73
2022/10/20 09:51:18;;;;;;;31.70;18.97;;;10.40;99.90;;;;;;5103564;28;20472;-73
2022/10/20 09:53:56;;;;;;;35.47;17.57;;;10.40;99.90;;;;;;5113100;28;20449;-73
2022/10/20 09:56:28;;;;;;;32.20;17.10;;;10.50;99.90;;;;;;5112717;28;20511;-73
2022/10/20 09:58:56;;;;;;;30.33;18.03;;;10.50;99.90;;;;;;5112807;27;20955;-73
2022/10/20 10:01:23;;;;;;;27.57;16.80;;;10.60;99.90;;;;;;5100919;28;20494;-73
2022/10/20 10:03:51;;;;;;;25.53;17.67;;;10.50;99.90;;;;;;5092632;28;20456;-73
2022/10/20 10:06:31;;;;;;;31.10;18.63;;;10.60;99.90;;;;;;5092063;28;20461;-73
2022/10/20 10:09:01;;;;;;;30.63;18.07;;;10.60;99.90;;;;;;5104839;28;20450;-73
2022/10/20 10:11:33;;;;;;;31.67;18.23;;;10.60;99.90;;;;;;5100527;28;20506;-73
2022/10/20 10:14:00;;;;;;;33.30;18.00;;;10.70;99.90;;;;;;5092291;28;20977;-73
2022/10/20 10:16:27;;;;;;;34.23;18.67;;;10.70;99.90;;;;;;5093184;28;20470;-74
2022/10/20 10:19:00;;;;;;;29.27;17.67;;;10.70;99.90;;;;;;5092136;28;20497;-74
2022/10/20 10:21:28;;;;;;;29.80;18.53;;;10.70;99.90;;;;;;5093667;28;20486;-75
2022/10/20 10:23:57;;;;;;;32.57;18.70;;;10.70;99.90;;;;;;5103467;28;20475;-74
2022/10/20 10:26:45;;;;;;;34.40;19.23;;;10.70;99.90;;;;;;5091853;28;20463;-73
2022/10/20 10:29:18;;;;;;;32.77;18.83;;;10.80;99.90;;;;;;5102454;28;20497;-73
2022/10/20 10:31:50;;;;;;;31.83;18.10;;;10.90;99.90;;;;;;5100486;28;20478;-73
2022/10/20 10:34:42;;;;;;;32.50;19.40;;;10.90;99.90;;;;;;5111820;28;20868;-74
2022/10/20 10:37:12;;;;;;;27.87;17.23;;;10.90;99.90;;;;;;5098317;28;20492;-74
2022/10/20 10:39:39;;;;;;;29.23;19.13;;;10.90;99.90;;;;;;5110149;28;20523;-73
2022/10/20 10:42:28;;;;;;;32.43;19.00;;;10.90;99.90;;;;;;5110840;28;21012;-74
2022/10/20 10:45:06;;;;;;;32.27;19.30;;;10.90;99.90;;;;;;5110766;28;21120;-73
2022/10/20 10:47:57;;;;;;;33.27;19.17;;;10.90;99.90;;;;;;5095224;27;20450;-73
2022/10/20 10:50:36;;;;;;;41.50;20.87;;;10.90;99.90;;;;;;5092556;28;20864;-73
2022/10/20 10:53:20;;;;;;;31.30;20.37;;;10.90;99.90;;;;;;5111398;28;20519;-73
2022/10/20 10:55:56;;;;;;;34.57;19.03;;;10.80;99.90;;;;;;5111294;28;20446;-73
2022/10/20 10:58:39;;;;;;;34.03;20.37;;;10.90;99.90;;;;;;5111383;28;20442;-74
2022/10/20 11:01:24;;;;;;;32.50;20.17;;;10.90;99.90;;;;;;5102992;28;20993;-73
2022/10/20 11:04:10;;;;;;;39.37;19.17;;;10.90;99.90;;;;;;5091165;28;20449;-74
2022/10/20 11:06:43;;;;;;;32.87;19.93;;;10.90;99.90;;;;;;5091055;28;20451;-74
2022/10/20 11:09:22;;;;;;;37.80;20.70;;;10.90;99.90;;;;;;5103441;28;20458;-73
2022/10/20 11:12:14;;;;;;;34.20;19.23;;;11.00;99.90;;;;;;5097328;28;20475;-72
2022/10/20 11:14:48;;;;;;;41.30;20.70;;;11.00;99.90;;;;;;5106497;28;20465;-76
2022/10/20 11:17:29;;;;;;;34.83;19.80;;;10.90;99.90;;;;;;5110903;28;20457;-76
2022/10/20 11:20:19;;;;;;;31.53;20.77;;;10.90;99.90;;;;;;5096650;28;20536;-76
2022/10/20 11:23:06;;;;;;;37.57;20.73;;;11.00;99.90;;;;;;5095025;28;20529;-75
2022/10/20 11:25:37;;;;;;;36.73;20.93;;;11.00;99.90;;;;;;5095807;28;20517;-77
2022/10/20 11:28:14;;;;;;;36.73;20.87;;;11.00;99.90;;;;;;5097953;28;20469;-75
2022/10/20 11:30:42;;;;;;;36.30;20.63;;;10.90;99.90;;;;;;5111287;28;20469;-75
2022/10/20 11:33:15;;;;;;;38.40;19.60;;;11.00;99.90;;;;;;5112515;28;20470;-75
2022/10/20 11:35:49;;;;;;;40.50;20.33;;;11.00;99.90;;;;;;5115179;28;20442;-76
2022/10/20 11:38:21;;;;;;;47.20;20.20;;;11.00;99.90;;;;;;5115030;28;20877;-75
2022/10/20 11:40:53;;;;;;;31.97;20.27;;;11.00;99.90;;;;;;5114290;28;20473;-75
2022/10/20 11:43:25;;;;;;;29.37;19.87;;;11.00;99.90;;;;;;5115192;28;20481;-76
2022/10/20 11:45:57;;;;;;;34.37;21.10;;;11.00;99.90;;;;;;5114972;28;20450;-76
2022/10/20 11:48:29;;;;;;;34.47;20.77;;;11.10;99.90;;;;;;5110540;28;20868;-75
2022/10/20 11:51:19;;;;;;;45.50;20.53;;;11.00;99.90;;;;;;5095256;28;20451;-75
2022/10/20 11:54:05;;;;;;;41.10;21.27;;;11.10;99.90;;;;;;5094538;28;20454;-75
2022/10/20 11:56:55;;;;;;;35.37;20.20;;;11.10;99.90;;;;;;5094332;28;20465;-75
2022/10/20 11:59:44;;;;;;;33.23;20.20;;;11.10;99.90;;;;;;5110635;28;20454;-75
2022/10/20 12:02:40;;;;;;;33.47;19.60;;;11.20;99.90;;;;;;5114072;28;20469;-76
2022/10/20 12:05:34;;;;;;;33.40;18.33;;;11.20;99.90;;;;;;5101225;27;20458;-75
2022/10/20 12:08:25;;;;;;;32.87;18.00;;;11.30;99.90;;;;;;5114643;28;20816;-75
2022/10/20 12:11:02;;;;;;;34.27;19.60;;;11.30;99.90;;;;;;5110185;28;20449;-75
2022/10/20 12:13:37;;;;;;;31.87;18.53;;;11.30;99.90;;;;;;5094063;28;20987;-75
2022/10/20 12:16:05;;;;;;;36.67;19.87;;;11.30;99.90;;;;;;5094194;28;20496;-75
2022/10/20 12:18:32;;;;;;;33.90;19.37;;;11.30;99.90;;;;;;5094184;28;20444;-75
2022/10/20 12:21:02;;;;;;;32.13;19.23;;;11.30;99.90;;;;;;5097999;28;21000;-76
2022/10/20 12:24:04;;;;;;;38.13;20.20;;;11.30;99.90;;;;;;5093867;28;20456;-76
2022/10/20 12:27:05;;;;;;;33.83;19.23;;;11.40;99.90;;;;;;5107093;28;20862;-75
2022/10/20 12:29:54;;;;;;;35.07;18.90;;;11.40;99.90;;;;;;5113927;28;20533;-75
2022/10/20 12:32:53;;;;;;;32.03;18.13;;;11.40;99.90;;;;;;5104584;28;20462;-76
2022/10/20 12:35:57;;;;;;;42.43;21.00;;;11.40;99.90;;;;;;5114363;28;20447;-75
2022/10/20 12:38:26;;;;;;;34.67;19.73;;;11.40;99.90;;;;;;5113086;28;20451;-74
2022/10/20 12:40:56;;;;;;;36.70;20.30;;;11.40;99.90;;;;;;5093083;28;20507;-75
2022/10/20 12:43:33;;;;;;;29.93;19.10;;;11.40;99.90;;;;;;5093789;28;20479;-74
2022/10/20 12:46:07;;;;;;;35.90;20.93;;;11.40;99.90;;;;;;5093470;28;20815;-74
2022/10/20 12:48:42;;;;;;;41.30;21.17;;;11.40;99.90;;;;;;5097996;28;20847;-73
2022/10/20 12:51:21;;;;;;;33.30;21.03;;;11.40;99.90;;;;;;5107552;28;20501;-74
2022/10/20 12:53:56;;;;;;;35.90;21.80;;;11.40;99.90;;;;;;5093483;28;20965;-74
2022/10/20 12:56:25;;;;;;;32.40;21.23;;;11.40;99.90;;;;;;5093276;28;21129;-73